sensor_id;sensor_type;location;lat;lon;timestamp;pressure;altitude;pressure_sealevel;temperature;humidity
54870;BME280;40756;-37.950;145.008;2023-04-26T00:00:09;102297.11;;;19.61;44.55
54870;BME280;40756;-37.950;145.008;2023-04-26T00:02:38;102296.13;;;19.82;44.14
54870;BME280;40756;-37.950;145.008;2023-04-26T00:05:08;102295.20;;;20.42;43.76
54870;BME280;40756;-37.950;145.008;2023-04-26T00:07:37;102294.98;;;19.69;43.86
54870;BME280;40756;-37.950;145.008;2023-04-26T00:10:08;102288.31;;;19.85;43.37
54870;BME280;40756;-37.950;145.008;2023-04-26T00:12:37;102282.84;;;20.33;43.10
54870;BME280;40756;-37.950;145.008;2023-04-26T00:15:08;102278.92;;;20.41;43.19
54870;BME280;40756;-37.950;145.008;2023-04-26T00:17:38;102276.81;;;20.25;42.94
54870;BME280;40756;-37.950;145.008;2023-04-26T00:20:08;102273.28;;;20.07;42.71
54870;BME280;40756;-37.950;145.008;2023-04-26T00:22:38;102269.94;;;20.90;42.46
54870;BME280;40756;-37.950;145.008;2023-04-26T00:25:08;102262.53;;;20.98;42.29
54870;BME280;40756;-37.950;145.008;2023-04-26T00:27:37;102259.30;;;21.11;42.48
54870;BME280;40756;-37.950;145.008;2023-04-26T00:30:08;102256.01;;;21.00;42.02
54870;BME280;40756;-37.950;145.008;2023-04-26T00:32:38;102253.91;;;21.22;41.82
54870;BME280;40756;-37.950;145.008;2023-04-26T00:35:08;102249.72;;;21.27;41.09
54870;BME280;40756;-37.950;145.008;2023-04-26T00:37:38;102248.39;;;21.88;41.98
54870;BME280;40756;-37.950;145.008;2023-04-26T00:40:10;102242.82;;;21.88;41.55
54870;BME280;40756;-37.950;145.008;2023-04-26T00:42:39;102237.14;;;21.51;41.27
54870;BME280;40756;-37.950;145.008;2023-04-26T00:45:09;102235.70;;;22.10;40.76
54870;BME280;40756;-37.950;145.008;2023-04-26T00:47:39;102230.15;;;21.61;39.75
54870;BME280;40756;-37.950;145.008;2023-04-26T00:50:09;102230.09;;;22.10;40.15
54870;BME280;40756;-37.950;145.008;2023-04-26T00:52:39;102227.65;;;22.00;41.04
54870;BME280;40756;-37.950;145.008;2023-04-26T00:55:09;102220.79;;;22.23;39.49
54870;BME280;40756;-37.950;145.008;2023-04-26T00:57:39;102217.09;;;22.52;39.00
54870;BME280;40756;-37.950;145.008;2023-04-26T01:00:10;102208.55;;;22.83;38.66
54870;BME280;40756;-37.950;145.008;2023-04-26T01:02:40;102206.43;;;22.44;39.33
54870;BME280;40756;-37.950;145.008;2023-04-26T01:05:09;102200.37;;;23.24;37.90
54870;BME280;40756;-37.950;145.008;2023-04-26T01:07:39;102190.03;;;23.16;37.67
54870;BME280;40756;-37.950;145.008;2023-04-26T01:10:09;102181.59;;;23.13;37.40
54870;BME280;40756;-37.950;145.008;2023-04-26T01:12:39;102183.85;;;23.36;37.64
54870;BME280;40756;-37.950;145.008;2023-04-26T01:15:10;102174.82;;;23.70;36.80
54870;BME280;40756;-37.950;145.008;2023-04-26T01:17:40;102170.17;;;23.41;37.52
54870;BME280;40756;-37.950;145.008;2023-04-26T01:20:09;102158.98;;;22.90;36.71
54870;BME280;40756;-37.950;145.008;2023-04-26T01:22:41;102153.13;;;23.32;36.38
54870;BME280;40756;-37.950;145.008;2023-04-26T01:25:12;102150.47;;;23.67;36.02
54870;BME280;40756;-37.950;145.008;2023-04-26T01:27:41;102136.82;;;23.64;34.98
54870;BME280;40756;-37.950;145.008;2023-04-26T01:30:11;102134.01;;;23.14;35.81
54870;BME280;40756;-37.950;145.008;2023-04-26T01:32:40;102127.38;;;23.66;35.48
54870;BME280;40756;-37.950;145.008;2023-04-26T01:35:10;102128.33;;;23.41;35.86
54870;BME280;40756;-37.950;145.008;2023-04-26T01:37:40;102115.77;;;23.88;35.38
54870;BME280;40756;-37.950;145.008;2023-04-26T01:40:11;102107.87;;;22.72;35.54
54870;BME280;40756;-37.950;145.008;2023-04-26T01:42:41;102104.84;;;23.21;36.14
54870;BME280;40756;-37.950;145.008;2023-04-26T01:45:10;102096.59;;;23.65;35.34
54870;BME280;40756;-37.950;145.008;2023-04-26T01:47:40;102090.68;;;23.77;34.96
54870;BME280;40756;-37.950;145.008;2023-04-26T01:50:10;102090.21;;;23.78;34.57
54870;BME280;40756;-37.950;145.008;2023-04-26T01:52:40;102086.16;;;24.31;34.62
54870;BME280;40756;-37.950;145.008;2023-04-26T01:55:09;102079.40;;;24.19;34.95
54870;BME280;40756;-37.950;145.008;2023-04-26T01:57:38;102075.00;;;24.25;34.59
54870;BME280;40756;-37.950;145.008;2023-04-26T02:00:09;102074.13;;;24.22;34.87
54870;BME280;40756;-37.950;145.008;2023-04-26T02:02:39;102071.97;;;24.15;34.27
54870;BME280;40756;-37.950;145.008;2023-04-26T02:05:10;102059.23;;;24.36;34.01
54870;BME280;40756;-37.950;145.008;2023-04-26T02:07:39;102045.92;;;24.60;34.12
54870;BME280;40756;-37.950;145.008;2023-04-26T02:10:09;102037.78;;;23.73;34.27
54870;BME280;40756;-37.950;145.008;2023-04-26T02:12:39;102030.59;;;24.56;33.50
54870;BME280;40756;-37.950;145.008;2023-04-26T02:15:09;102022.50;;;24.32;33.78
54870;BME280;40756;-37.950;145.008;2023-04-26T02:17:39;102012.25;;;24.72;32.86
54870;BME280;40756;-37.950;145.008;2023-04-26T02:20:09;102004.96;;;25.09;32.92
54870;BME280;40756;-37.950;145.008;2023-04-26T02:22:39;101997.67;;;25.57;33.00
54870;BME280;40756;-37.950;145.008;2023-04-26T02:25:09;101993.50;;;24.89;33.21
54870;BME280;40756;-37.950;145.008;2023-04-26T02:27:38;101990.29;;;25.41;31.91
54870;BME280;40756;-37.950;145.008;2023-04-26T02:30:08;101976.61;;;25.97;31.09
54870;BME280;40756;-37.950;145.008;2023-04-26T02:32:38;101973.48;;;26.65;30.64
54870;BME280;40756;-37.950;145.008;2023-04-26T02:35:07;101962.41;;;26.68;29.82
54870;BME280;40756;-37.950;145.008;2023-04-26T02:37:37;101955.25;;;27.36;29.07
54870;BME280;40756;-37.950;145.008;2023-04-26T02:40:08;101950.11;;;27.21;29.20
54870;BME280;40756;-37.950;145.008;2023-04-26T02:42:39;101944.97;;;27.15;28.84
54870;BME280;40756;-37.950;145.008;2023-04-26T02:45:09;101941.57;;;26.74;28.88
54870;BME280;40756;-37.950;145.008;2023-04-26T02:47:38;101940.28;;;27.01;28.79
54870;BME280;40756;-37.950;145.008;2023-04-26T02:50:09;101932.82;;;27.08;28.55
54870;BME280;40756;-37.950;145.008;2023-04-26T02:52:39;101933.51;;;26.98;28.45
54870;BME280;40756;-37.950;145.008;2023-04-26T02:55:09;101938.23;;;27.00;28.43
54870;BME280;40756;-37.950;145.008;2023-04-26T02:57:39;101934.06;;;26.95;28.87
54870;BME280;40756;-37.950;145.008;2023-04-26T03:00:09;101934.08;;;26.35;29.49
54870;BME280;40756;-37.950;145.008;2023-04-26T03:02:38;101928.62;;;26.97;29.38
54870;BME280;40756;-37.950;145.008;2023-04-26T03:05:08;101920.47;;;26.47;29.39
54870;BME280;40756;-37.950;145.008;2023-04-26T03:07:38;101926.51;;;26.21;30.39
54870;BME280;40756;-37.950;145.008;2023-04-26T03:10:08;101930.57;;;26.51;29.71
54870;BME280;40756;-37.950;145.008;2023-04-26T03:12:38;101924.18;;;26.41;29.54
54870;BME280;40756;-37.950;145.008;2023-04-26T03:15:08;101917.52;;;26.47;30.45
54870;BME280;40756;-37.950;145.008;2023-04-26T03:17:37;101921.74;;;26.38;29.57
54870;BME280;40756;-37.950;145.008;2023-04-26T03:20:07;101926.25;;;26.90;30.36
54870;BME280;40756;-37.950;145.008;2023-04-26T03:22:37;101920.44;;;26.92;29.64
54870;BME280;40756;-37.950;145.008;2023-04-26T03:25:07;101921.82;;;26.44;30.46
54870;BME280;40756;-37.950;145.008;2023-04-26T03:27:36;101914.32;;;26.60;30.14
54870;BME280;40756;-37.950;145.008;2023-04-26T03:30:07;101909.91;;;26.70;30.26
54870;BME280;40756;-37.950;145.008;2023-04-26T03:32:37;101906.06;;;27.48;29.16
54870;BME280;40756;-37.950;145.008;2023-04-26T03:35:07;101901.02;;;27.36;28.05
54870;BME280;40756;-37.950;145.008;2023-04-26T03:37:36;101896.73;;;27.48;28.70
54870;BME280;40756;-37.950;145.008;2023-04-26T03:40:07;101893.49;;;27.31;29.34
54870;BME280;40756;-37.950;145.008;2023-04-26T03:42:38;101885.84;;;26.68;30.06
54870;BME280;40756;-37.950;145.008;2023-04-26T03:45:08;101881.94;;;27.15;28.55
54870;BME280;40756;-37.950;145.008;2023-04-26T03:47:37;101873.06;;;26.62;30.04
54870;BME280;40756;-37.950;145.008;2023-04-26T03:50:07;101867.44;;;26.60;30.17
54870;BME280;40756;-37.950;145.008;2023-04-26T03:52:37;101869.19;;;26.72;29.95
54870;BME280;40756;-37.950;145.008;2023-04-26T03:55:07;101866.08;;;27.24;28.44
54870;BME280;40756;-37.950;145.008;2023-04-26T03:57:37;101865.03;;;27.06;28.41
54870;BME280;40756;-37.950;145.008;2023-04-26T04:00:07;101865.30;;;27.89;28.37
54870;BME280;40756;-37.950;145.008;2023-04-26T04:02:38;101856.67;;;27.51;29.01
54870;BME280;40756;-37.950;145.008;2023-04-26T04:05:07;101852.57;;;27.23;28.86
54870;BME280;40756;-37.950;145.008;2023-04-26T04:07:37;101848.85;;;27.34;28.94
54870;BME280;40756;-37.950;145.008;2023-04-26T04:10:07;101848.37;;;27.90;28.61
54870;BME280;40756;-37.950;145.008;2023-04-26T04:12:37;101847.76;;;27.81;27.50
54870;BME280;40756;-37.950;145.008;2023-04-26T04:15:07;101847.11;;;27.84;26.89
54870;BME280;40756;-37.950;145.008;2023-04-26T04:17:36;101836.41;;;27.64;28.92
54870;BME280;40756;-37.950;145.008;2023-04-26T04:20:06;101836.00;;;27.16;28.68
54870;BME280;40756;-37.950;145.008;2023-04-26T04:22:36;101843.69;;;27.40;27.47
54870;BME280;40756;-37.950;145.008;2023-04-26T04:25:06;101842.49;;;27.72;28.47
54870;BME280;40756;-37.950;145.008;2023-04-26T04:27:36;101847.24;;;27.09;27.18
54870;BME280;40756;-37.950;145.008;2023-04-26T04:30:06;101855.32;;;27.31;27.99
54870;BME280;40756;-37.950;145.008;2023-04-26T04:32:36;101855.83;;;27.76;27.67
54870;BME280;40756;-37.950;145.008;2023-04-26T04:35:06;101851.42;;;27.88;27.77
54870;BME280;40756;-37.950;145.008;2023-04-26T04:37:36;101849.44;;;27.39;27.62
54870;BME280;40756;-37.950;145.008;2023-04-26T04:40:06;101846.92;;;27.33;27.79
54870;BME280;40756;-37.950;145.008;2023-04-26T04:42:36;101849.83;;;27.40;26.95
54870;BME280;40756;-37.950;145.008;2023-04-26T04:45:08;101853.41;;;27.61;28.53
54870;BME280;40756;-37.950;145.008;2023-04-26T04:47:37;101853.73;;;28.07;27.01
54870;BME280;40756;-37.950;145.008;2023-04-26T04:50:07;101856.36;;;27.99;27.46
54870;BME280;40756;-37.950;145.008;2023-04-26T04:52:37;101842.98;;;27.70;26.25
54870;BME280;40756;-37.950;145.008;2023-04-26T04:55:07;101839.81;;;28.39;26.15
54870;BME280;40756;-37.950;145.008;2023-04-26T04:57:37;101833.11;;;28.15;27.56
54870;BME280;40756;-37.950;145.008;2023-04-26T05:00:07;101833.04;;;28.53;26.00
54870;BME280;40756;-37.950;145.008;2023-04-26T05:02:37;101835.63;;;28.33;27.03
54870;BME280;40756;-37.950;145.008;2023-04-26T05:05:07;101835.33;;;28.02;27.54
54870;BME280;40756;-37.950;145.008;2023-04-26T05:07:36;101830.08;;;28.11;27.42
54870;BME280;40756;-37.950;145.008;2023-04-26T05:10:06;101826.84;;;27.60;27.85
54870;BME280;40756;-37.950;145.008;2023-04-26T05:12:36;101832.48;;;27.26;27.67
54870;BME280;40756;-37.950;145.008;2023-04-26T05:15:06;101829.69;;;26.95;28.75
54870;BME280;40756;-37.950;145.008;2023-04-26T05:17:36;101833.16;;;27.38;28.41
54870;BME280;40756;-37.950;145.008;2023-04-26T05:20:06;101832.83;;;26.23;29.51
54870;BME280;40756;-37.950;145.008;2023-04-26T05:22:35;101825.88;;;26.93;29.11
54870;BME280;40756;-37.950;145.008;2023-04-26T05:25:05;101821.37;;;27.67;29.23
54870;BME280;40756;-37.950;145.008;2023-04-26T05:27:35;101818.44;;;26.79;29.92
54870;BME280;40756;-37.950;145.008;2023-04-26T05:30:05;101815.96;;;26.58;29.71
54870;BME280;40756;-37.950;145.008;2023-04-26T05:32:34;101815.54;;;27.17;28.14
54870;BME280;40756;-37.950;145.008;2023-04-26T05:35:04;101811.66;;;27.04;28.72
54870;BME280;40756;-37.950;145.008;2023-04-26T05:37:34;101806.97;;;27.34;27.43
54870;BME280;40756;-37.950;145.008;2023-04-26T05:40:04;101803.53;;;27.08;28.41
54870;BME280;40756;-37.950;145.008;2023-04-26T05:42:33;101791.29;;;27.92;27.97
54870;BME280;40756;-37.950;145.008;2023-04-26T05:45:04;101785.52;;;26.82;28.25
54870;BME280;40756;-37.950;145.008;2023-04-26T05:47:34;101784.89;;;26.86;28.64
54870;BME280;40756;-37.950;145.008;2023-04-26T05:50:04;101788.99;;;27.09;28.60
54870;BME280;40756;-37.950;145.008;2023-04-26T05:52:34;101793.62;;;27.16;28.71
54870;BME280;40756;-37.950;145.008;2023-04-26T05:55:05;101785.19;;;26.82;28.78
54870;BME280;40756;-37.950;145.008;2023-04-26T05:57:34;101779.51;;;26.27;30.11
54870;BME280;40756;-37.950;145.008;2023-04-26T06:00:05;101779.73;;;26.38;29.53
54870;BME280;40756;-37.950;145.008;2023-04-26T06:02:34;101779.08;;;25.80;29.60
54870;BME280;40756;-37.950;145.008;2023-04-26T06:05:04;101774.30;;;26.45;29.57
54870;BME280;40756;-37.950;145.008;2023-04-26T06:07:34;101777.01;;;25.42;29.91
54870;BME280;40756;-37.950;145.008;2023-04-26T06:10:03;101773.51;;;26.21;29.23
54870;BME280;40756;-37.950;145.008;2023-04-26T06:12:32;101773.44;;;25.79;30.51
54870;BME280;40756;-37.950;145.008;2023-04-26T06:15:02;101768.85;;;26.01;30.29
54870;BME280;40756;-37.950;145.008;2023-04-26T06:17:31;101768.11;;;25.87;30.61
54870;BME280;40756;-37.950;145.008;2023-04-26T06:20:02;101762.24;;;25.85;30.38
54870;BME280;40756;-37.950;145.008;2023-04-26T06:22:31;101759.77;;;25.62;30.11
54870;BME280;40756;-37.950;145.008;2023-04-26T06:25:01;101759.02;;;25.54;30.09
54870;BME280;40756;-37.950;145.008;2023-04-26T06:27:31;101757.79;;;25.25;30.85
54870;BME280;40756;-37.950;145.008;2023-04-26T06:30:00;101753.34;;;25.20;31.41
54870;BME280;40756;-37.950;145.008;2023-04-26T06:32:29;101748.03;;;25.27;30.81
54870;BME280;40756;-37.950;145.008;2023-04-26T06:34:59;101748.97;;;25.29;32.09
54870;BME280;40756;-37.950;145.008;2023-04-26T06:37:29;101749.15;;;24.76;32.39
54870;BME280;40756;-37.950;145.008;2023-04-26T06:39:58;101750.53;;;24.92;32.90
54870;BME280;40756;-37.950;145.008;2023-04-26T06:42:28;101748.90;;;25.36;32.18
54870;BME280;40756;-37.950;145.008;2023-04-26T06:44:58;101753.49;;;25.00;31.04
54870;BME280;40756;-37.950;145.008;2023-04-26T06:47:28;101751.41;;;24.72;32.26
54870;BME280;40756;-37.950;145.008;2023-04-26T06:49:59;101751.00;;;24.93;32.24
54870;BME280;40756;-37.950;145.008;2023-04-26T06:52:28;101752.49;;;24.83;32.80
54870;BME280;40756;-37.950;145.008;2023-04-26T06:55:00;101754.25;;;24.79;33.00
54870;BME280;40756;-37.950;145.008;2023-04-26T06:57:30;101753.95;;;24.50;32.57
54870;BME280;40756;-37.950;145.008;2023-04-26T07:00:00;101759.44;;;23.94;33.16
54870;BME280;40756;-37.950;145.008;2023-04-26T07:02:29;101761.45;;;24.17;33.03
54870;BME280;40756;-37.950;145.008;2023-04-26T07:04:58;101760.00;;;24.21;32.75
54870;BME280;40756;-37.950;145.008;2023-04-26T07:07:28;101756.94;;;24.10;33.03
54870;BME280;40756;-37.950;145.008;2023-04-26T07:09:57;101757.73;;;23.91;32.94
54870;BME280;40756;-37.950;145.008;2023-04-26T07:12:27;101754.94;;;23.98;33.11
54870;BME280;40756;-37.950;145.008;2023-04-26T07:14:56;101755.44;;;23.79;33.03
54870;BME280;40756;-37.950;145.008;2023-04-26T07:17:26;101753.99;;;24.03;33.80
54870;BME280;40756;-37.950;145.008;2023-04-26T07:19:55;101755.16;;;23.94;33.70
54870;BME280;40756;-37.950;145.008;2023-04-26T07:22:25;101753.23;;;23.06;33.61
54870;BME280;40756;-37.950;145.008;2023-04-26T07:24:54;101751.55;;;23.70;33.72
54870;BME280;40756;-37.950;145.008;2023-04-26T07:27:24;101753.91;;;23.90;33.44
54870;BME280;40756;-37.950;145.008;2023-04-26T07:29:54;101755.26;;;23.69;34.04
54870;BME280;40756;-37.950;145.008;2023-04-26T07:32:24;101754.25;;;23.29;34.05
54870;BME280;40756;-37.950;145.008;2023-04-26T07:34:54;101752.77;;;23.55;34.62
54870;BME280;40756;-37.950;145.008;2023-04-26T07:37:23;101747.66;;;23.53;35.07
54870;BME280;40756;-37.950;145.008;2023-04-26T07:39:52;101747.97;;;23.22;37.50
54870;BME280;40756;-37.950;145.008;2023-04-26T07:42:22;101745.78;;;23.00;35.91
54870;BME280;40756;-37.950;145.008;2023-04-26T07:44:51;101745.76;;;23.23;37.46
54870;BME280;40756;-37.950;145.008;2023-04-26T07:47:21;101744.26;;;23.25;37.07
54870;BME280;40756;-37.950;145.008;2023-04-26T07:49:54;101745.41;;;22.97;36.43
54870;BME280;40756;-37.950;145.008;2023-04-26T07:52:23;101741.96;;;22.64;35.87
54870;BME280;40756;-37.950;145.008;2023-04-26T07:54:53;101743.50;;;23.16;36.33
54870;BME280;40756;-37.950;145.008;2023-04-26T07:57:23;101742.98;;;22.43;36.77
54870;BME280;40756;-37.950;145.008;2023-04-26T07:59:52;101740.61;;;22.27;36.80
54870;BME280;40756;-37.950;145.008;2023-04-26T08:02:22;101738.13;;;22.40;37.04
54870;BME280;40756;-37.950;145.008;2023-04-26T08:04:51;101737.20;;;22.48;37.50
54870;BME280;40756;-37.950;145.008;2023-04-26T08:07:21;101738.75;;;22.45;37.69
54870;BME280;40756;-37.950;145.008;2023-04-26T08:09:51;101735.99;;;22.55;37.13
54870;BME280;40756;-37.950;145.008;2023-04-26T08:12:20;101731.67;;;22.41;37.22
54870;BME280;40756;-37.950;145.008;2023-04-26T08:14:49;101727.37;;;22.37;37.87
54870;BME280;40756;-37.950;145.008;2023-04-26T08:17:19;101727.07;;;22.48;37.48
54870;BME280;40756;-37.950;145.008;2023-04-26T08:19:48;101731.16;;;22.32;37.39
54870;BME280;40756;-37.950;145.008;2023-04-26T08:22:18;101727.55;;;22.11;38.51
54870;BME280;40756;-37.950;145.008;2023-04-26T08:24:48;101722.00;;;21.97;37.61
54870;BME280;40756;-37.950;145.008;2023-04-26T08:27:18;101717.14;;;21.99;37.76
54870;BME280;40756;-37.950;145.008;2023-04-26T08:29:47;101714.54;;;22.08;37.28
54870;BME280;40756;-37.950;145.008;2023-04-26T08:32:17;101720.27;;;22.12;37.75
54870;BME280;40756;-37.950;145.008;2023-04-26T08:34:46;101721.87;;;22.49;38.25
54870;BME280;40756;-37.950;145.008;2023-04-26T08:37:16;101721.03;;;22.04;37.66
54870;BME280;40756;-37.950;145.008;2023-04-26T08:39:45;101723.87;;;21.89;38.61
54870;BME280;40756;-37.950;145.008;2023-04-26T08:42:16;101718.88;;;21.62;38.93
54870;BME280;40756;-37.950;145.008;2023-04-26T08:44:46;101711.73;;;22.04;37.35
54870;BME280;40756;-37.950;145.008;2023-04-26T08:47:17;101715.62;;;22.11;37.06
54870;BME280;40756;-37.950;145.008;2023-04-26T08:49:50;101713.23;;;22.19;37.01
54870;BME280;40756;-37.950;145.008;2023-04-26T08:52:23;101715.25;;;22.35;38.06
54870;BME280;40756;-37.950;145.008;2023-04-26T08:54:57;101715.48;;;22.14;37.37
54870;BME280;40756;-37.950;145.008;2023-04-26T08:57:27;101713.10;;;22.17;37.08
54870;BME280;40756;-37.950;145.008;2023-04-26T09:00:00;101715.53;;;22.11;37.36
54870;BME280;40756;-37.950;145.008;2023-04-26T09:02:30;101711.37;;;22.02;37.13
54870;BME280;40756;-37.950;145.008;2023-04-26T09:05:00;101706.71;;;22.00;37.33
54870;BME280;40756;-37.950;145.008;2023-04-26T09:07:32;101706.06;;;21.97;36.96
54870;BME280;40756;-37.950;145.008;2023-04-26T09:10:05;101704.91;;;22.15;37.24
54870;BME280;40756;-37.950;145.008;2023-04-26T09:12:35;101699.37;;;21.79;37.25
54870;BME280;40756;-37.950;145.008;2023-04-26T09:15:06;101703.60;;;21.83;36.93
54870;BME280;40756;-37.950;145.008;2023-04-26T09:17:36;101709.84;;;21.91;37.23
54870;BME280;40756;-37.950;145.008;2023-04-26T09:20:23;101713.91;;;21.97;36.64
54870;BME280;40756;-37.950;145.008;2023-04-26T09:23:03;101721.03;;;21.77;36.92
54870;BME280;40756;-37.950;145.008;2023-04-26T09:25:34;101720.70;;;21.83;37.32
54870;BME280;40756;-37.950;145.008;2023-04-26T09:28:17;101720.75;;;21.67;36.55
54870;BME280;40756;-37.950;145.008;2023-04-26T09:30:47;101723.49;;;21.92;36.79
54870;BME280;40756;-37.950;145.008;2023-04-26T09:33:17;101721.92;;;21.69;36.64
54870;BME280;40756;-37.950;145.008;2023-04-26T09:35:46;101722.50;;;21.61;36.60
54870;BME280;40756;-37.950;145.008;2023-04-26T09:38:17;101723.36;;;21.97;36.43
54870;BME280;40756;-37.950;145.008;2023-04-26T09:40:48;101719.62;;;21.28;37.23
54870;BME280;40756;-37.950;145.008;2023-04-26T09:43:19;101716.24;;;21.71;36.82
54870;BME280;40756;-37.950;145.008;2023-04-26T09:45:50;101710.78;;;21.66;36.88
54870;BME280;40756;-37.950;145.008;2023-04-26T09:48:21;101709.72;;;21.25;37.49
54870;BME280;40756;-37.950;145.008;2023-04-26T09:50:52;101709.37;;;21.69;37.30
54870;BME280;40756;-37.950;145.008;2023-04-26T09:53:28;101706.93;;;21.65;36.46
54870;BME280;40756;-37.950;145.008;2023-04-26T09:56:06;101705.44;;;21.23;36.53
54870;BME280;40756;-37.950;145.008;2023-04-26T09:58:37;101700.84;;;21.71;36.56
54870;BME280;40756;-37.950;145.008;2023-04-26T10:01:07;101700.80;;;21.58;36.59
54870;BME280;40756;-37.950;145.008;2023-04-26T10:03:37;101696.22;;;21.34;36.65
54870;BME280;40756;-37.950;145.008;2023-04-26T10:06:07;101694.49;;;21.25;37.16
54870;BME280;40756;-37.950;145.008;2023-04-26T10:08:37;101692.13;;;21.37;37.03
54870;BME280;40756;-37.950;145.008;2023-04-26T10:11:07;101688.17;;;21.32;36.69
54870;BME280;40756;-37.950;145.008;2023-04-26T10:13:37;101687.45;;;21.02;37.23
54870;BME280;40756;-37.950;145.008;2023-04-26T10:16:07;101689.83;;;21.44;37.21
54870;BME280;40756;-37.950;145.008;2023-04-26T10:18:37;101690.47;;;21.37;37.31
54870;BME280;40756;-37.950;145.008;2023-04-26T10:21:10;101696.67;;;21.41;36.98
54870;BME280;40756;-37.950;145.008;2023-04-26T10:23:40;101698.75;;;21.44;37.23
54870;BME280;40756;-37.950;145.008;2023-04-26T10:26:47;101698.94;;;21.07;37.32
54870;BME280;40756;-37.950;145.008;2023-04-26T10:29:16;101700.23;;;21.35;36.90
54870;BME280;40756;-37.950;145.008;2023-04-26T10:32:17;101698.88;;;21.43;37.23
54870;BME280;40756;-37.950;145.008;2023-04-26T10:35:09;101698.94;;;21.41;36.87
54870;BME280;40756;-37.950;145.008;2023-04-26T10:38:08;101704.68;;;21.27;37.38
54870;BME280;40756;-37.950;145.008;2023-04-26T10:40:39;101706.76;;;21.16;37.85
54870;BME280;40756;-37.950;145.008;2023-04-26T10:43:40;101704.73;;;21.23;37.72
54870;BME280;40756;-37.950;145.008;2023-04-26T10:46:36;101705.24;;;20.83;37.60
54870;BME280;40756;-37.950;145.008;2023-04-26T10:49:22;101701.94;;;21.09;37.43
54870;BME280;40756;-37.950;145.008;2023-04-26T10:52:23;101696.95;;;21.29;37.17
54870;BME280;40756;-37.950;145.008;2023-04-26T10:54:55;101700.45;;;21.14;37.09
54870;BME280;40756;-37.950;145.008;2023-04-26T10:57:46;101702.44;;;21.15;37.60
54870;BME280;40756;-37.950;145.008;2023-04-26T11:00:25;101706.52;;;21.15;37.58
54870;BME280;40756;-37.950;145.008;2023-04-26T11:03:01;101704.66;;;21.14;37.22
54870;BME280;40756;-37.950;145.008;2023-04-26T11:05:53;101706.52;;;21.02;37.72
54870;BME280;40756;-37.950;145.008;2023-04-26T11:08:26;101709.07;;;21.08;37.44
54870;BME280;40756;-37.950;145.008;2023-04-26T11:11:06;101704.69;;;20.86;36.98
54870;BME280;40756;-37.950;145.008;2023-04-26T11:13:37;101709.12;;;20.67;37.21
54870;BME280;40756;-37.950;145.008;2023-04-26T11:16:08;101709.41;;;20.90;36.82
54870;BME280;40756;-37.950;145.008;2023-04-26T11:18:39;101712.51;;;21.34;36.65
54870;BME280;40756;-37.950;145.008;2023-04-26T11:21:10;101715.47;;;21.10;37.13
54870;BME280;40756;-37.950;145.008;2023-04-26T11:23:40;101716.51;;;21.34;37.15
54870;BME280;40756;-37.950;145.008;2023-04-26T11:26:09;101721.28;;;21.34;36.68
54870;BME280;40756;-37.950;145.008;2023-04-26T11:28:39;101717.73;;;20.81;36.93
54870;BME280;40756;-37.950;145.008;2023-04-26T11:31:09;101723.63;;;21.16;37.00
54870;BME280;40756;-37.950;145.008;2023-04-26T11:33:38;101723.03;;;21.16;36.92
54870;BME280;40756;-37.950;145.008;2023-04-26T11:36:09;101721.00;;;20.96;37.39
54870;BME280;40756;-37.950;145.008;2023-04-26T11:38:39;101725.26;;;21.07;37.43
54870;BME280;40756;-37.950;145.008;2023-04-26T11:41:08;101729.40;;;21.10;37.48
54870;BME280;40756;-37.950;145.008;2023-04-26T11:43:38;101726.44;;;21.04;37.54
54870;BME280;40756;-37.950;145.008;2023-04-26T11:46:09;101722.19;;;20.98;37.52
54870;BME280;40756;-37.950;145.008;2023-04-26T11:48:38;101719.47;;;20.88;37.65
54870;BME280;40756;-37.950;145.008;2023-04-26T11:51:09;101718.94;;;20.61;37.77
54870;BME280;40756;-37.950;145.008;2023-04-26T11:53:39;101720.44;;;20.63;38.76
54870;BME280;40756;-37.950;145.008;2023-04-26T11:56:18;101719.75;;;20.40;38.35
54870;BME280;40756;-37.950;145.008;2023-04-26T11:58:49;101716.53;;;20.94;38.65
54870;BME280;40756;-37.950;145.008;2023-04-26T12:01:23;101717.46;;;20.42;38.66
54870;BME280;40756;-37.950;145.008;2023-04-26T12:03:55;101715.71;;;20.63;38.92
54870;BME280;40756;-37.950;145.008;2023-04-26T12:06:29;101714.90;;;20.35;38.62
54870;BME280;40756;-37.950;145.008;2023-04-26T12:09:02;101719.28;;;20.51;38.67
54870;BME280;40756;-37.950;145.008;2023-04-26T12:11:31;101718.93;;;20.24;38.92
54870;BME280;40756;-37.950;145.008;2023-04-26T12:14:01;101721.55;;;20.16;39.45
54870;BME280;40756;-37.950;145.008;2023-04-26T12:16:30;101721.33;;;20.26;39.36
54870;BME280;40756;-37.950;145.008;2023-04-26T12:18:59;101720.37;;;20.03;39.25
54870;BME280;40756;-37.950;145.008;2023-04-26T12:21:40;101720.33;;;20.11;39.49
54870;BME280;40756;-37.950;145.008;2023-04-26T12:24:21;101721.17;;;20.31;40.02
54870;BME280;40756;-37.950;145.008;2023-04-26T12:26:51;101722.76;;;19.92;40.07
54870;BME280;40756;-37.950;145.008;2023-04-26T12:29:21;101717.08;;;20.14;43.34
54870;BME280;40756;-37.950;145.008;2023-04-26T12:31:50;101715.24;;;20.28;40.17
54870;BME280;40756;-37.950;145.008;2023-04-26T12:34:20;101713.06;;;20.33;40.24
54870;BME280;40756;-37.950;145.008;2023-04-26T12:36:49;101712.68;;;19.91;40.25
54870;BME280;40756;-37.950;145.008;2023-04-26T12:39:19;101707.05;;;20.30;39.86